createdAt,value
2023-03-31T00:01:08.790Z,100066.00
2023-03-31T00:03:38.857Z,100064.13
2023-03-31T00:06:06.333Z,100052.31
2023-03-31T00:08:36.817Z,100042.88
2023-03-31T00:11:07.484Z,100053.91
2023-03-31T00:13:36.610Z,100051.22
2023-03-31T00:16:08.613Z,100050.44
2023-03-31T00:18:37.528Z,100052.56
2023-03-31T00:21:14.714Z,100059.28
2023-03-31T00:23:42.293Z,100046.38
2023-03-31T00:26:09.224Z,100038.59
2023-03-31T00:28:36.236Z,100050.44
2023-03-31T00:31:04.429Z,100034.03
2023-03-31T00:33:31.978Z,100036.72
2023-03-31T00:36:06.458Z,100034.31
2023-03-31T00:38:34.416Z,100026.53
2023-03-31T00:41:03.158Z,100022.47
2023-03-31T00:43:36.606Z,100032.94
2023-03-31T00:46:19.472Z,100026.53
2023-03-31T00:48:59.786Z,100023.28
2023-03-31T00:51:32.468Z,100016.28
2023-03-31T00:54:06.278Z,100016.28
2023-03-31T00:56:37.790Z,100013.34
2023-03-31T00:59:09.609Z,100012.00
2023-03-31T01:01:40.118Z,100002.88
2023-03-31T01:04:09.664Z,100003.41
2023-03-31T01:06:50.299Z,100001.78
2023-03-31T01:09:17.294Z,99999.66
2023-03-31T01:11:46.963Z,99999.38
2023-03-31T01:14:14.867Z,99999.09
2023-03-31T01:16:44.826Z,99987.56
2023-03-31T01:19:30.957Z,99995.59
2023-03-31T01:22:11.078Z,99992.13
2023-03-31T01:25:05.835Z,99991.31
2023-03-31T01:28:14.776Z,99973.53
2023-03-31T01:31:03.648Z,99981.59
2023-03-31T01:34:02.536Z,99995.53
2023-03-31T01:36:59.842Z,99970.03
2023-03-31T01:39:55.117Z,99968.16
2023-03-31T01:42:40.428Z,99971.34
2023-03-31T01:45:45.944Z,99967.88
2023-03-31T01:48:21.168Z,99969.47
2023-03-31T01:51:03.418Z,99957.41
2023-03-31T01:54:06.482Z,99958.22
2023-03-31T01:56:46.664Z,99959.28
2023-03-31T01:59:24.098Z,99959.28
2023-03-31T02:02:10.622Z,99952.84
2023-03-31T02:04:48.937Z,99946.69
2023-03-31T02:07:23.249Z,99952.59
2023-03-31T02:09:56.960Z,99944.56
2023-03-31T02:12:28.867Z,99953.41
2023-03-31T02:14:58.142Z,99945.91
2023-03-31T02:17:32.535Z,99944.81
2023-03-31T02:20:15.930Z,99939.75
2023-03-31T02:22:49.014Z,99929.00
2023-03-31T02:25:22.866Z,99927.13
2023-03-31T02:27:58.471Z,99924.47
2023-03-31T02:30:36.800Z,99920.47
2023-03-31T02:33:05.301Z,99911.56
2023-03-31T02:35:36.836Z,99919.66
2023-03-31T02:38:06.694Z,99916.19
2023-03-31T02:40:34.056Z,99912.41
2023-03-31T02:43:01.960Z,99912.16
2023-03-31T02:45:50.398Z,99905.72
2023-03-31T02:48:31.967Z,99902.50
2023-03-31T02:51:08.474Z,99908.94
2023-03-31T02:54:17.433Z,99901.69
2023-03-31T02:57:25.292Z,99899.53
2023-03-31T03:00:17.076Z,99898.19
2023-03-31T03:03:02.576Z,99892.31
2023-03-31T03:05:58.934Z,99894.44
2023-03-31T03:09:12.400Z,99892.03
2023-03-31T03:12:18.010Z,99892.31
2023-03-31T03:14:49.388Z,99886.66
2023-03-31T03:17:38.157Z,99885.84
2023-03-31T03:20:09.849Z,99882.09
2023-03-31T03:22:38.991Z,99883.72
2023-03-31T03:25:09.361Z,99888.00
2023-03-31T03:27:37.498Z,99878.88
2023-03-31T03:30:06.941Z,99869.50
2023-03-31T03:32:34.309Z,99864.38
2023-03-31T03:35:02.947Z,99868.13
2023-03-31T03:37:30.303Z,99860.34
2023-03-31T03:39:57.777Z,99854.19
2023-03-31T03:42:24.860Z,99851.22
2023-03-31T03:44:51.809Z,99846.13
2023-03-31T03:47:18.682Z,99840.75
2023-03-31T03:49:45.760Z,99841.56
2023-03-31T03:52:12.818Z,99838.88
2023-03-31T03:54:39.830Z,99838.31
2023-03-31T03:57:07.330Z,99841.00
2023-03-31T03:59:34.541Z,99831.06
2023-03-31T04:02:01.594Z,99826.25
2023-03-31T04:04:28.733Z,99834.28
2023-03-31T04:06:55.765Z,99820.63
2023-03-31T04:09:22.655Z,99826.25
2023-03-31T04:11:49.714Z,99822.22
2023-03-31T04:14:16.717Z,99826.50
2023-03-31T04:16:46.827Z,99819.53
2023-03-31T04:19:17.801Z,99828.41
2023-03-31T04:21:45.539Z,99821.97
2023-03-31T04:24:15.960Z,99812.03
2023-03-31T04:26:43.577Z,99807.47
2023-03-31T04:29:20.628Z,99813.38
2023-03-31T04:31:47.761Z,99801.28
2023-03-31T04:34:15.687Z,99797.28
2023-03-31T04:36:48.733Z,99798.88
2023-03-31T04:39:26.821Z,99786.28
2023-03-31T04:41:54.276Z,99782.25
2023-03-31T04:44:21.454Z,99790.84
2023-03-31T04:46:48.759Z,99787.09
2023-03-31T04:49:15.919Z,99779.88
2023-03-31T04:51:42.965Z,99771.84
2023-03-31T04:54:09.941Z,99767.81
2023-03-31T04:56:36.962Z,99772.38
2023-03-31T04:59:05.117Z,99772.38
2023-03-31T05:01:36.387Z,99773.44
2023-03-31T05:04:05.285Z,99766.22
2023-03-31T05:06:33.089Z,99766.47
2023-03-31T05:09:00.582Z,99753.31
2023-03-31T05:11:28.916Z,99751.72
2023-03-31T05:13:56.763Z,99754.69
2023-03-31T05:16:23.814Z,99749.31
2023-03-31T05:18:51.019Z,99752.00
2023-03-31T05:21:20.983Z,99739.91
2023-03-31T05:23:48.870Z,99729.19
2023-03-31T05:26:16.338Z,99732.66
2023-03-31T05:28:44.174Z,99723.81
2023-03-31T05:31:13.308Z,99731.88
2023-03-31T05:33:41.780Z,99739.38
2023-03-31T05:36:11.880Z,99734.03
2023-03-31T05:38:40.704Z,99726.25
2023-03-31T05:41:09.602Z,99723.56
2023-03-31T05:43:38.217Z,99728.38
2023-03-31T05:46:06.601Z,99717.41
2023-03-31T05:48:34.102Z,99726.53
2023-03-31T05:51:02.147Z,99713.91
2023-03-31T05:53:29.857Z,99715.78
2023-03-31T05:56:02.188Z,99708.50
2023-03-31T05:58:30.435Z,99690.00
2023-03-31T06:01:06.903Z,99701.25
2023-03-31T06:03:41.581Z,99691.81
2023-03-31T06:06:10.315Z,99688.59
2023-03-31T06:08:37.886Z,99692.09
2023-03-31T06:11:11.284Z,99692.34
2023-03-31T06:13:40.924Z,99693.38
2023-03-31T06:16:10.554Z,99688.81
2023-03-31T06:18:37.916Z,99692.28
2023-03-31T06:21:06.160Z,99681.25
2023-03-31T06:23:34.186Z,99695.19
2023-03-31T06:26:06.294Z,99678.03
2023-03-31T06:28:34.898Z,99669.66
2023-03-31T06:31:14.840Z,99678.47
2023-03-31T06:33:43.553Z,99675.22
2023-03-31T06:36:13.139Z,99670.88
2023-03-31T06:38:40.484Z,99663.91
2023-03-31T06:41:09.406Z,99668.22
2023-03-31T06:43:37.334Z,99662.03
2023-03-31T06:46:05.221Z,99665.00
2023-03-31T06:48:32.597Z,99659.09
2023-03-31T06:51:01.582Z,99653.72
2023-03-31T06:53:29.500Z,99660.66
2023-03-31T06:55:56.580Z,99636.22
2023-03-31T06:58:25.273Z,99651.66
2023-03-31T07:00:52.929Z,99645.72
2023-03-31T07:03:22.445Z,99639.50
2023-03-31T07:05:51.551Z,99648.81
2023-03-31T07:08:19.411Z,99635.59
2023-03-31T07:10:49.074Z,99644.91
2023-03-31T07:13:16.909Z,99651.22
2023-03-31T07:15:47.658Z,99641.19
2023-03-31T07:18:16.305Z,99629.28
2023-03-31T07:20:43.992Z,99639.28
2023-03-31T07:23:11.294Z,99633.28
2023-03-31T07:25:39.423Z,99627.84
2023-03-31T07:28:06.846Z,99623.94
2023-03-31T07:30:33.849Z,99607.16
2023-03-31T07:33:01.168Z,99604.53
2023-03-31T07:35:28.541Z,99615.06
2023-03-31T07:37:58.981Z,99623.75
2023-03-31T07:40:29.467Z,99607.06
2023-03-31T07:42:57.093Z,99601.22
2023-03-31T07:45:26.460Z,99602.78
2023-03-31T07:47:54.046Z,99605.59
2023-03-31T07:50:23.804Z,99600.16
2023-03-31T07:52:53.098Z,99590.97
2023-03-31T07:55:20.632Z,99591.97
2023-03-31T07:57:47.868Z,99580.50
2023-03-31T08:00:16.628Z,99577.44
2023-03-31T08:02:44.159Z,99582.75
2023-03-31T08:05:13.335Z,99587.06
2023-03-31T08:07:44.324Z,99575.69
2023-03-31T08:10:22.262Z,99566.13
2023-03-31T08:12:49.511Z,99558.84
2023-03-31T08:15:16.666Z,99562.50
2023-03-31T08:17:44.065Z,99548.41
2023-03-31T08:20:12.020Z,99551.88
2023-03-31T08:22:40.212Z,99545.81
2023-03-31T08:25:08.657Z,99554.91
2023-03-31T08:27:39.455Z,99549.53
2023-03-31T08:30:10.110Z,99534.31
2023-03-31T08:32:37.475Z,99534.53
2023-03-31T08:35:05.265Z,99537.13
2023-03-31T08:37:32.776Z,99540.66
2023-03-31T08:40:00.455Z,99526.78
2023-03-31T08:42:59.852Z,99533.53
2023-03-31T08:45:55.903Z,99518.56
2023-03-31T08:48:38.697Z,99530.03
2023-03-31T08:51:14.121Z,99508.19
2023-03-31T08:53:55.705Z,99505.00
2023-03-31T08:56:26.009Z,99496.72
2023-03-31T08:58:53.958Z,99495.28
2023-03-31T09:01:55.448Z,99507.72
2023-03-31T09:04:32.554Z,99491.13
2023-03-31T09:07:40.762Z,99488.22
2023-03-31T09:10:54.316Z,99489.66
2023-03-31T09:13:45.101Z,99495.38
2023-03-31T09:16:37.828Z,99487.53
2023-03-31T09:19:17.262Z,99481.59
2023-03-31T09:21:50.969Z,99483.97
2023-03-31T09:24:47.186Z,99478.63
2023-03-31T09:27:15.346Z,99473.06
2023-03-31T09:30:10.590Z,99461.31
2023-03-31T09:32:39.614Z,99447.78
2023-03-31T09:35:26.536Z,99447.69
2023-03-31T09:37:54.432Z,99447.44
2023-03-31T09:40:28.462Z,99438.34
2023-03-31T09:43:09.048Z,99440.22
2023-03-31T09:45:36.476Z,99428.94
2023-03-31T09:48:12.559Z,99417.13
2023-03-31T09:50:51.550Z,99418.97
2023-03-31T09:53:49.478Z,99424.44
2023-03-31T09:56:35.949Z,99415.91
2023-03-31T09:59:04.216Z,99411.97
2023-03-31T10:01:31.630Z,99405.31
2023-03-31T10:03:58.940Z,99400.53
2023-03-31T10:06:26.840Z,99395.06
2023-03-31T10:09:03.621Z,99393.34
2023-03-31T10:11:31.316Z,99398.47
2023-03-31T10:14:13.230Z,99386.06
2023-03-31T10:16:53.431Z,99383.97
2023-03-31T10:19:30.067Z,99385.59
2023-03-31T10:22:15.978Z,99372.69
2023-03-31T10:24:46.666Z,99371.94
2023-03-31T10:27:30.243Z,99355.50
2023-03-31T10:30:00.530Z,99362.66
2023-03-31T10:32:33.782Z,99362.50
2023-03-31T10:35:21.957Z,99357.25
2023-03-31T10:37:51.807Z,99349.13
2023-03-31T10:40:27.103Z,99346.59
2023-03-31T10:43:36.462Z,99336.88
2023-03-31T10:46:04.376Z,99349.94
2023-03-31T10:48:34.752Z,99341.97
2023-03-31T10:51:12.817Z,99332.25
2023-03-31T10:53:43.149Z,99343.56
2023-03-31T10:56:36.485Z,99345.47
2023-03-31T10:59:28.052Z,99345.94
2023-03-31T11:02:39.239Z,99328.88
2023-03-31T11:05:36.784Z,99325.94
2023-03-31T11:08:41.141Z,99332.47
2023-03-31T11:11:31.326Z,99342.47
2023-03-31T11:14:06.826Z,99333.78
2023-03-31T11:17:21.393Z,99328.19
2023-03-31T11:19:56.349Z,99340.09
2023-03-31T11:22:37.673Z,99323.88
2023-03-31T11:25:23.349Z,99312.25
2023-03-31T11:28:17.877Z,99314.09
2023-03-31T11:31:19.865Z,99302.53
2023-03-31T11:34:08.528Z,99292.25
2023-03-31T11:37:15.431Z,99287.47
2023-03-31T11:40:09.621Z,99274.63
2023-03-31T11:42:59.480Z,99265.25
2023-03-31T11:46:13.614Z,99259.44
2023-03-31T11:48:46.234Z,99251.72
2023-03-31T11:51:53.382Z,99261.06
2023-03-31T11:54:50.488Z,99266.88
2023-03-31T11:57:30.380Z,99251.28
2023-03-31T12:00:09.108Z,99236.19
2023-03-31T12:02:59.316Z,99248.38
2023-03-31T12:05:28.962Z,99245.06
2023-03-31T12:08:17.132Z,99239.88
2023-03-31T12:11:13.770Z,99228.28
2023-03-31T12:13:59.105Z,99232.25
2023-03-31T12:16:51.043Z,99230.38
2023-03-31T12:19:45.908Z,99221.19
2023-03-31T12:22:31.427Z,99217.44
2023-03-31T12:24:59.907Z,99216.34
2023-03-31T12:27:44.002Z,99211.34
2023-03-31T12:30:18.266Z,99208.31
2023-03-31T12:32:57.297Z,99214.88
2023-03-31T12:35:58.874Z,99213.47
2023-03-31T12:38:54.567Z,99202.38
2023-03-31T12:42:03.446Z,99193.00
2023-03-31T12:45:00.520Z,99201.22
2023-03-31T12:47:33.600Z,99208.47
2023-03-31T12:50:37.974Z,99207.75
2023-03-31T12:53:25.241Z,99196.00
2023-03-31T12:55:59.536Z,99189.84
2023-03-31T12:58:32.307Z,99193.88
2023-03-31T13:01:16.429Z,99194.91
2023-03-31T13:04:09.034Z,99187.34
2023-03-31T13:06:38.945Z,99188.91
2023-03-31T13:09:11.373Z,99189.13
2023-03-31T13:11:41.068Z,99183.41
2023-03-31T13:14:21.233Z,99175.16
2023-03-31T13:16:56.276Z,99167.16
2023-03-31T13:19:37.185Z,99186.50
2023-03-31T13:22:06.125Z,99173.13
2023-03-31T13:24:34.610Z,99171.13
2023-03-31T13:27:34.239Z,99177.50
2023-03-31T13:30:01.564Z,99165.78
2023-03-31T13:32:29.237Z,99168.63
2023-03-31T13:35:28.114Z,99183.31
2023-03-31T13:38:09.798Z,99181.09
2023-03-31T13:41:29.624Z,99178.22
2023-03-31T13:44:40.308Z,99182.66
2023-03-31T13:47:25.346Z,99186.22
2023-03-31T13:50:30.362Z,99168.75
2023-03-31T13:53:28.213Z,99180.28
2023-03-31T13:56:09.397Z,99176.69
2023-03-31T13:59:04.400Z,99175.69
2023-03-31T14:01:47.379Z,99174.09
2023-03-31T14:04:45.285Z,99169.53
2023-03-31T14:07:27.213Z,99171.94
2023-03-31T14:09:55.001Z,99177.84
2023-03-31T14:12:37.167Z,99166.84
2023-03-31T14:15:07.174Z,99168.72
2023-03-31T14:17:37.938Z,99171.19
2023-03-31T14:20:33.240Z,99162.09
2023-03-31T14:23:23.748Z,99176.78
2023-03-31T14:26:01.999Z,99176.81
2023-03-31T14:29:00.985Z,99175.50
2023-03-31T14:32:06.358Z,99175.78
2023-03-31T14:35:14.054Z,99169.22
2023-03-31T14:37:41.342Z,99172.78
2023-03-31T14:40:15.047Z,99165.84
2023-03-31T14:42:49.410Z,99166.91
2023-03-31T14:45:25.087Z,99165.28
2023-03-31T14:47:56.056Z,99167.94
2023-03-31T14:50:35.013Z,99160.16
2023-03-31T14:53:02.430Z,99168.41
2023-03-31T14:55:54.363Z,99161.19
2023-03-31T14:58:43.344Z,99160.16
2023-03-31T15:01:17.748Z,99163.91
2023-03-31T15:03:46.754Z,99159.13
2023-03-31T15:06:14.550Z,99153.81
2023-03-31T15:08:42.109Z,99149.53
2023-03-31T15:11:17.159Z,99158.59
2023-03-31T15:14:00.713Z,99153.00
2023-03-31T15:16:45.435Z,99150.31
2023-03-31T15:19:21.194Z,99153.81
2023-03-31T15:21:57.904Z,99140.13
2023-03-31T15:24:24.915Z,99140.34
2023-03-31T15:27:23.485Z,99150.22
2023-03-31T15:30:01.646Z,99155.31
2023-03-31T15:32:32.509Z,99146.97
2023-03-31T15:35:11.077Z,99159.00
2023-03-31T15:37:49.517Z,99147.72
2023-03-31T15:40:30.132Z,99137.28
2023-03-31T15:45:51.286Z,99143.69
2023-03-31T15:48:49.705Z,99146.34
2023-03-31T15:51:36.965Z,99148.53
2023-03-31T15:54:11.290Z,99142.13
2023-03-31T15:56:44.719Z,99145.91
2023-03-31T16:02:23.635Z,99134.94
2023-03-31T16:04:57.353Z,99138.69
2023-03-31T16:07:30.302Z,99134.94
2023-03-31T16:10:06.295Z,99131.19
2023-03-31T16:12:43.053Z,99132.25
2023-03-31T16:15:19.167Z,99134.16
2023-03-31T16:17:54.677Z,99132.53
2023-03-31T16:20:41.015Z,99132.78
2023-03-31T16:23:23.366Z,99119.94
2023-03-31T16:25:50.818Z,99136.03
2023-03-31T16:28:34.487Z,99128.22
2023-03-31T16:31:02.314Z,99135.19
2023-03-31T16:33:31.964Z,99138.66
2023-03-31T16:36:02.757Z,99133.00
2023-03-31T16:38:30.035Z,99131.94
2023-03-31T16:40:58.950Z,99137.81
2023-03-31T16:43:29.081Z,99138.38
2023-03-31T16:45:59.148Z,99137.28
2023-03-31T16:48:29.188Z,99139.16
2023-03-31T16:50:58.819Z,99138.38
2023-03-31T16:53:29.578Z,99138.94
2023-03-31T16:55:56.936Z,99140.00
2023-03-31T16:58:24.982Z,99141.91
2023-03-31T17:00:52.903Z,99139.50
2023-03-31T17:03:20.467Z,99139.50
2023-03-31T17:05:52.971Z,99148.06
2023-03-31T17:08:22.873Z,99139.50
2023-03-31T17:10:56.291Z,99137.91
2023-03-31T17:13:23.383Z,99148.91
2023-03-31T17:15:52.079Z,99148.91
2023-03-31T17:18:23.204Z,99146.22
2023-03-31T17:20:50.411Z,99149.19
2023-03-31T17:23:17.684Z,99152.66
2023-03-31T17:25:53.546Z,99151.88
2023-03-31T17:28:20.583Z,99150.03
2023-03-31T17:30:50.808Z,99146.28
2023-03-31T17:33:18.339Z,99155.34
2023-03-31T17:35:45.456Z,99151.88
2023-03-31T17:38:14.293Z,99152.16
2023-03-31T17:40:41.764Z,99151.31
2023-03-31T17:43:08.673Z,99141.66
2023-03-31T17:45:35.762Z,99138.41
2023-03-31T17:48:03.029Z,99147.25
2023-03-31T17:50:30.190Z,99148.84
2023-03-31T17:52:58.291Z,99146.19
2023-03-31T17:55:25.445Z,99152.06
2023-03-31T17:57:52.342Z,99151.53
2023-03-31T18:00:19.625Z,99149.38
2023-03-31T18:02:46.836Z,99146.69
2023-03-31T18:05:15.781Z,99153.13
2023-03-31T18:07:43.941Z,99159.00
2023-03-31T18:10:11.916Z,99159.81
2023-03-31T18:12:39.310Z,99160.09
2023-03-31T18:15:07.212Z,99158.22
2023-03-31T18:17:34.470Z,99156.91
2023-03-31T18:20:01.510Z,99158.22
2023-03-31T18:22:28.780Z,99161.69
2023-03-31T18:24:56.481Z,99154.16
2023-03-31T18:27:25.104Z,99154.44
2023-03-31T18:29:52.691Z,99153.38
2023-03-31T18:32:20.219Z,99148.53
2023-03-31T18:34:47.326Z,99153.88
2023-03-31T18:37:14.689Z,99158.69
2023-03-31T18:39:42.585Z,99153.09
2023-03-31T18:42:10.015Z,99148.53
2023-03-31T18:44:39.157Z,99152.22
2023-03-31T18:47:06.602Z,99171.47
2023-03-31T18:49:33.623Z,99162.34
2023-03-31T18:52:02.434Z,99167.69
2023-03-31T18:54:29.424Z,99152.41
2023-03-31T18:56:56.912Z,99168.72
2023-03-31T18:59:24.303Z,99164.97
2023-03-31T19:01:51.523Z,99154.81
2023-03-31T19:04:18.703Z,99150.25
2023-03-31T19:06:46.112Z,99169.75
2023-03-31T19:09:13.127Z,99161.19
2023-03-31T19:11:40.096Z,99168.38
2023-03-31T19:14:07.326Z,99171.34
2023-03-31T19:16:41.510Z,99170.28
2023-03-31T19:19:08.585Z,99170.56
2023-03-31T19:21:37.279Z,99175.09
2023-03-31T19:24:06.025Z,99173.22
2023-03-31T19:26:33.102Z,99168.69
2023-03-31T19:29:00.777Z,99176.69
2023-03-31T19:31:27.921Z,99174.25
2023-03-31T19:33:55.168Z,99178.28
2023-03-31T19:36:22.602Z,99181.25
2023-03-31T19:38:49.734Z,99169.19
2023-03-31T19:41:18.198Z,99176.94
2023-03-31T19:43:47.737Z,99175.34
2023-03-31T19:46:15.064Z,99179.41
2023-03-31T19:48:42.354Z,99179.97
2023-03-31T19:51:11.017Z,99179.69
2023-03-31T19:53:38.826Z,99184.25
2023-03-31T19:56:16.739Z,99170.31
2023-03-31T19:58:44.539Z,99164.72
2023-03-31T20:01:24.011Z,99173.56
2023-03-31T20:03:53.388Z,99171.19
2023-03-31T20:06:24.747Z,99170.66
2023-03-31T20:08:55.208Z,99182.72
2023-03-31T20:11:23.107Z,99170.66
2023-03-31T20:13:50.600Z,99165.31
2023-03-31T20:16:21.207Z,99179.00
2023-03-31T20:18:57.464Z,99173.63
2023-03-31T20:21:27.822Z,99180.06
2023-03-31T20:23:56.320Z,99166.44
2023-03-31T20:26:26.775Z,99168.31
2023-03-31T20:28:56.050Z,99169.97
2023-03-31T20:31:30.716Z,99180.13
2023-03-31T20:33:58.002Z,99161.41
2023-03-31T20:36:29.722Z,99171.81
2023-03-31T20:38:57.555Z,99172.09
2023-03-31T20:41:29.834Z,99169.13
2023-03-31T20:43:57.724Z,99174.75
2023-03-31T20:46:25.047Z,99170.72
2023-03-31T20:48:56.127Z,99171.22
2023-03-31T20:51:32.417Z,99159.81
2023-03-31T20:54:01.622Z,99160.84
2023-03-31T20:56:35.873Z,99170.78
2023-03-31T20:59:03.948Z,99167.00
2023-03-31T21:01:33.529Z,99162.22
2023-03-31T21:04:02.711Z,99171.63
2023-03-31T21:06:37.276Z,99168.13
2023-03-31T21:09:04.705Z,99161.75
2023-03-31T21:11:32.786Z,99183.19
2023-03-31T21:14:00.527Z,99174.41
2023-03-31T21:16:27.671Z,99181.34
2023-03-31T21:18:55.055Z,99172.78
2023-03-31T21:21:24.481Z,99187.28
2023-03-31T21:23:51.807Z,99187.00
2023-03-31T21:26:19.706Z,99181.41
2023-03-31T21:28:48.172Z,99178.47
2023-03-31T21:31:18.167Z,99194.00
2023-03-31T21:33:47.359Z,99192.69
2023-03-31T21:36:18.296Z,99190.06
2023-03-31T21:38:45.670Z,99195.69
2023-03-31T21:41:22.726Z,99191.44
2023-03-31T21:43:50.965Z,99195.22
2023-03-31T21:46:29.803Z,99194.69
2023-03-31T21:48:57.472Z,99199.53
2023-03-31T21:51:25.801Z,99201.97
2023-03-31T21:53:55.428Z,99203.56
2023-03-31T21:56:24.714Z,99195.59
2023-03-31T21:58:52.033Z,99193.97
2023-03-31T22:01:19.639Z,99196.13
2023-03-31T22:03:47.033Z,99200.69
2023-03-31T22:06:14.139Z,99192.94
2023-03-31T22:08:41.307Z,99202.63
2023-03-31T22:11:11.345Z,99201.53
2023-03-31T22:13:38.706Z,99209.28
2023-03-31T22:16:17.549Z,99209.28
2023-03-31T22:18:45.875Z,99212.00
2023-03-31T22:21:22.755Z,99210.66
2023-03-31T22:23:53.120Z,99207.44
2023-03-31T22:26:22.194Z,99208.81
2023-03-31T22:28:49.665Z,99205.09
2023-03-31T22:31:16.664Z,99208.56
2023-03-31T22:33:43.993Z,99213.13
2023-03-31T22:36:11.100Z,99204.56
2023-03-31T22:38:38.133Z,99202.69
2023-03-31T22:41:05.554Z,99203.75
2023-03-31T22:43:33.524Z,99208.03
2023-03-31T22:46:06.444Z,99214.19
2023-03-31T22:48:34.489Z,99209.41
2023-03-31T22:51:08.693Z,99223.59
2023-03-31T22:53:35.969Z,99213.69
2023-03-31T22:56:10.132Z,99220.63
2023-03-31T22:58:37.870Z,99205.69
2023-03-31T23:01:06.820Z,99215.56
2023-03-31T23:03:34.203Z,99220.63
2023-03-31T23:06:05.611Z,99218.75
2023-03-31T23:08:33.652Z,99218.50
2023-03-31T23:11:01.302Z,99218.78
2023-03-31T23:13:29.530Z,99222.00
2023-03-31T23:15:57.005Z,99227.88
2023-03-31T23:18:24.319Z,99219.59
2023-03-31T23:20:52.334Z,99221.19
2023-03-31T23:23:19.450Z,99229.75
2023-03-31T23:25:46.556Z,99221.44
2023-03-31T23:28:13.688Z,99225.72
2023-03-31T23:30:41.167Z,99217.16
2023-03-31T23:33:08.642Z,99226.78
2023-03-31T23:35:35.703Z,99224.09
2023-03-31T23:38:03.055Z,99222.22
2023-03-31T23:40:30.056Z,99219.28
2023-03-31T23:42:57.252Z,99218.75
2023-03-31T23:45:24.175Z,99222.50
2023-03-31T23:47:51.289Z,99223.03
2023-03-31T23:50:18.257Z,99226.50
2023-03-31T23:52:45.338Z,99212.88
2023-03-31T23:55:13.084Z,99224.34
2023-03-31T23:57:41.248Z,99225.69
